PWSweather.com
Personal Weather Stations
Station Observations
UWIDEPER1
Brown County, Depere, WI 54115

Brown CountyDepere, WI 54115

Lat: 44.44, Lon: -88.05

Elevation: 610

Station Type: Acurite 5in1

www.depereweather.com

High Low Average
Temperature 71.8°F22.1°C 53.4°F11.9°C 61.9°F16.6°C
Dew Point 65.5°F18.6°C 48.4°F9.1°C 55.3°F12.9°C
Winds 5.8 mph 9.3 kmh Calm Calm 3.0 mph SE4.8 kmh SE
Wind Gusts 10.4 mph16.7 kmh -- 4.0 mph6.4 kmh
Humidity 93% 65% 80%
Pressure 30.06 in1017.9 mb 29.73 in1006.8 mb -
Precipitation 0.00 in0.0 mm - -
Hour Temp Dew Point Humidity Winds Wind Gusts Pressure Precip Precip Rate Daily Precip Total
12:00 AM 71.1°F21.7°C 65.6°F18.7°C 83% 2.3 mph WNW3.7 kmh WNW 3.5 mph5.6 kmh 29.72 in1006.4 mb - 0.00 in0.0 mm 0.00 in0.0 mm
12:10 AM 71.1°F21.7°C 65.6°F18.7°C 83% 2.3 mph NW3.7 kmh NW 3.5 mph5.6 kmh 29.72 in1006.4 mb - 0.00 in0.0 mm 0.00 in0.0 mm
12:15 AM 71.1°F21.7°C 65.6°F18.7°C 83% 2.3 mph NNW3.7 kmh NNW 3.5 mph5.6 kmh 29.72 in1006.4 mb - 0.00 in0.0 mm 0.00 in0.0 mm
12:20 AM 71.1°F21.7°C 65.6°F18.7°C 83% 3.5 mph WNW5.6 kmh WNW 3.5 mph5.6 kmh 29.73 in1006.8 mb - 0.00 in0.0 mm 0.00 in0.0 mm
12:25 AM 70.9°F21.6°C 65.5°F18.6°C 83% 1.2 mph W1.9 kmh W 2.3 mph3.7 kmh 29.72 in1006.4 mb - 0.00 in0.0 mm 0.00 in0.0 mm
12:30 AM 70.5°F21.4°C 65.1°F18.4°C 83% 2.3 mph NW3.7 kmh NW 4.6 mph7.4 kmh 29.73 in1006.8 mb - 0.00 in0.0 mm 0.00 in0.0 mm
12:35 AM 70.5°F21.4°C 65.1°F18.4°C 83% 1.2 mph NNW1.9 kmh NNW 1.2 mph1.9 kmh 29.73 in1006.8 mb - 0.00 in0.0 mm 0.00 in0.0 mm
12:40 AM 70.3°F21.3°C 64.9°F18.3°C 83% 1.2 mph NW1.9 kmh NW 2.3 mph3.7 kmh 29.73 in1006.8 mb - 0.00 in0.0 mm 0.00 in0.0 mm
12:45 AM 70.2°F21.2°C 64.8°F18.2°C 83% 1.2 mph WNW1.9 kmh WNW 2.3 mph3.7 kmh 29.73 in1006.8 mb - 0.00 in0.0 mm 0.00 in0.0 mm
12:50 AM 70.0°F21.1°C 64.6°F18.1°C 83% 1.2 mph NW1.9 kmh NW 2.3 mph3.7 kmh 29.73 in1006.8 mb - 0.00 in0.0 mm 0.00 in0.0 mm
12:55 AM 70.0°F21.1°C 64.6°F18.1°C 83% 1.2 mph ENE1.9 kmh ENE 1.2 mph1.9 kmh 29.73 in1006.8 mb - 0.00 in0.0 mm 0.00 in0.0 mm
01:00 AM 69.8°F21.0°C 64.4°F18.0°C 83% Calm Calm -- 29.73 in1006.8 mb - 0.00 in0.0 mm 0.00 in0.0 mm
01:10 AM 69.6°F20.9°C 64.6°F18.1°C 84% 2.3 mph NNE3.7 kmh NNE 3.5 mph5.6 kmh 29.74 in1007.1 mb - 0.00 in0.0 mm 0.00 in0.0 mm
01:15 AM 69.6°F20.9°C 65.2°F18.4°C 86% 3.5 mph NNE5.6 kmh NNE 6.9 mph11.1 kmh 29.75 in1007.5 mb - 0.00 in0.0 mm 0.00 in0.0 mm
01:20 AM 69.2°F20.7°C 65.5°F18.6°C 88% 3.5 mph N5.6 kmh N 3.5 mph5.6 kmh 29.75 in1007.5 mb - 0.00 in0.0 mm 0.00 in0.0 mm
01:25 AM 68.5°F20.3°C 64.8°F18.2°C 88% 3.5 mph ENE5.6 kmh ENE 3.5 mph5.6 kmh 29.75 in1007.5 mb - 0.00 in0.0 mm 0.00 in0.0 mm
01:30 AM 68.2°F20.1°C 64.5°F18.1°C 88% 2.3 mph NE3.7 kmh NE 3.5 mph5.6 kmh 29.75 in1007.5 mb - 0.00 in0.0 mm 0.00 in0.0 mm
01:35 AM 67.6°F19.8°C 64.6°F18.1°C 90% 2.3 mph N3.7 kmh N 3.5 mph5.6 kmh 29.75 in1007.5 mb - 0.00 in0.0 mm 0.00 in0.0 mm
01:40 AM 67.2°F19.6°C 64.1°F17.8°C 90% 3.5 mph NW5.6 kmh NW 3.5 mph5.6 kmh 29.75 in1007.5 mb - 0.00 in0.0 mm 0.00 in0.0 mm
01:45 AM 66.4°F19.1°C 63.4°F17.4°C 90% 3.5 mph N5.6 kmh N 5.8 mph9.3 kmh 29.76 in1007.8 mb - 0.00 in0.0 mm 0.00 in0.0 mm
01:50 AM 66.0°F18.9°C 63.3°F17.4°C 91% 3.5 mph WSW5.6 kmh WSW 3.5 mph5.6 kmh 29.76 in1007.8 mb - 0.00 in0.0 mm 0.00 in0.0 mm
01:55 AM 65.8°F18.8°C 63.1°F17.3°C 91% 3.5 mph W5.6 kmh W 3.5 mph5.6 kmh 29.76 in1007.8 mb - 0.00 in0.0 mm 0.00 in0.0 mm
02:00 AM 65.8°F18.8°C 63.1°F17.3°C 91% 2.3 mph NNE3.7 kmh NNE 1.2 mph1.9 kmh 29.76 in1007.8 mb - 0.00 in0.0 mm 0.00 in0.0 mm
02:10 AM 65.5°F18.6°C 62.8°F17.1°C 91% 2.3 mph NE3.7 kmh NE 2.3 mph3.7 kmh 29.77 in1008.1 mb - 0.00 in0.0 mm 0.00 in0.0 mm
02:15 AM 65.5°F18.6°C 62.8°F17.1°C 91% 2.3 mph NNE3.7 kmh NNE 3.5 mph5.6 kmh 29.76 in1007.8 mb - 0.00 in0.0 mm 0.00 in0.0 mm
02:20 AM 65.5°F18.6°C 62.8°F17.1°C 91% 2.3 mph NNW3.7 kmh NNW 2.3 mph3.7 kmh 29.77 in1008.1 mb - 0.00 in0.0 mm 0.00 in0.0 mm
02:25 AM 65.5°F18.6°C 62.8°F17.1°C 91% 1.2 mph NW1.9 kmh NW 3.5 mph5.6 kmh 29.77 in1008.1 mb - 0.00 in0.0 mm 0.00 in0.0 mm
02:30 AM 65.1°F18.4°C 62.4°F16.9°C 91% 1.2 mph NW1.9 kmh NW 2.3 mph3.7 kmh 29.77 in1008.1 mb - 0.00 in0.0 mm 0.00 in0.0 mm
02:35 AM 65.1°F18.4°C 63.0°F17.2°C 93% 2.3 mph ENE3.7 kmh ENE 3.5 mph5.6 kmh 29.77 in1008.1 mb - 0.00 in0.0 mm 0.00 in0.0 mm
02:40 AM 65.1°F18.4°C 63.0°F17.2°C 93% 3.5 mph WSW5.6 kmh WSW 4.6 mph7.4 kmh 29.77 in1008.1 mb - 0.00 in0.0 mm 0.00 in0.0 mm
02:45 AM 65.1°F18.4°C 63.0°F17.2°C 93% 3.5 mph NE5.6 kmh NE 3.5 mph5.6 kmh 29.77 in1008.1 mb - 0.00 in0.0 mm 0.00 in0.0 mm
02:50 AM 64.9°F18.3°C 62.9°F17.2°C 93% 3.5 mph NNE5.6 kmh NNE 3.5 mph5.6 kmh 29.78 in1008.5 mb - 0.00 in0.0 mm 0.00 in0.0 mm
02:55 AM 64.9°F18.3°C 62.9°F17.2°C 93% 2.3 mph N3.7 kmh N 3.5 mph5.6 kmh 29.78 in1008.5 mb - 0.00 in0.0 mm 0.00 in0.0 mm
03:00 AM 64.5°F18.1°C 61.8°F16.6°C 91% 3.5 mph N5.6 kmh N 8.1 mph13.0 kmh 29.78 in1008.5 mb - 0.00 in0.0 mm 0.00 in0.0 mm
03:10 AM 63.9°F17.7°C 61.2°F16.2°C 91% 2.3 mph NE3.7 kmh NE 3.5 mph5.6 kmh 29.78 in1008.5 mb - 0.00 in0.0 mm 0.00 in0.0 mm
03:15 AM 63.4°F17.4°C 60.7°F15.9°C 91% 3.5 mph NNE5.6 kmh NNE 3.5 mph5.6 kmh 29.78 in1008.5 mb - 0.00 in0.0 mm 0.00 in0.0 mm
03:20 AM 63.0°F17.2°C 60.3°F15.7°C 91% 3.5 mph NNE5.6 kmh NNE 4.6 mph7.4 kmh 29.78 in1008.5 mb - 0.00 in0.0 mm 0.00 in0.0 mm
03:25 AM 62.4°F16.9°C 59.8°F15.4°C 91% 2.3 mph NE3.7 kmh NE 2.3 mph3.7 kmh 29.79 in1008.8 mb - 0.00 in0.0 mm 0.00 in0.0 mm
03:30 AM 62.1°F16.7°C 59.5°F15.3°C 91% 2.3 mph NE3.7 kmh NE 3.5 mph5.6 kmh 29.79 in1008.8 mb - 0.00 in0.0 mm 0.00 in0.0 mm
03:35 AM 61.7°F16.5°C 59.0°F15.0°C 91% 2.3 mph NNW3.7 kmh NNW 3.5 mph5.6 kmh 29.79 in1008.8 mb - 0.00 in0.0 mm 0.00 in0.0 mm
03:40 AM 61.1°F16.2°C 58.5°F14.7°C 91% 3.5 mph NNE5.6 kmh NNE 8.1 mph13.0 kmh 29.79 in1008.8 mb - 0.00 in0.0 mm 0.00 in0.0 mm
03:45 AM 60.4°F15.8°C 57.8°F14.3°C 91% 4.6 mph ENE7.4 kmh ENE 3.5 mph5.6 kmh 29.79 in1008.8 mb - 0.00 in0.0 mm 0.00 in0.0 mm
03:50 AM 60.3°F15.7°C 57.6°F14.2°C 91% 2.3 mph NE3.7 kmh NE 4.6 mph7.4 kmh 29.79 in1008.8 mb - 0.00 in0.0 mm 0.00 in0.0 mm
03:55 AM 60.3°F15.7°C 57.6°F14.2°C 91% 2.3 mph ENE3.7 kmh ENE 2.3 mph3.7 kmh 29.79 in1008.8 mb - 0.00 in0.0 mm 0.00 in0.0 mm
04:00 AM 60.3°F15.7°C 57.6°F14.2°C 91% 2.3 mph E3.7 kmh E 2.3 mph3.7 kmh 29.79 in1008.8 mb - 0.00 in0.0 mm 0.00 in0.0 mm
04:10 AM 60.1°F15.6°C 57.4°F14.1°C 91% 2.3 mph NE3.7 kmh NE 3.5 mph5.6 kmh 29.79 in1008.8 mb - 0.00 in0.0 mm 0.00 in0.0 mm
04:15 AM 60.1°F15.6°C 57.4°F14.1°C 91% 1.2 mph N1.9 kmh N -- 29.80 in1009.1 mb - 0.00 in0.0 mm 0.00 in0.0 mm
04:20 AM 60.1°F15.6°C 57.4°F14.1°C 91% 1.2 mph NNE1.9 kmh NNE 2.3 mph3.7 kmh 29.82 in1009.8 mb - 0.00 in0.0 mm 0.00 in0.0 mm
04:25 AM 59.8°F15.4°C 57.1°F13.9°C 91% 3.5 mph NE5.6 kmh NE 3.5 mph5.6 kmh 29.82 in1009.8 mb - 0.00 in0.0 mm 0.00 in0.0 mm
04:30 AM 59.7°F15.4°C 57.1°F13.9°C 91% 2.3 mph E3.7 kmh E 1.2 mph1.9 kmh 29.82 in1009.8 mb - 0.00 in0.0 mm 0.00 in0.0 mm
04:35 AM 59.4°F15.2°C 56.7°F13.7°C 91% 1.2 mph NNE1.9 kmh NNE 2.3 mph3.7 kmh 29.82 in1009.8 mb - 0.00 in0.0 mm 0.00 in0.0 mm
04:40 AM 59.4°F15.2°C 56.7°F13.7°C 91% 1.2 mph E1.9 kmh E -- 29.82 in1009.8 mb - 0.00 in0.0 mm 0.00 in0.0 mm
04:45 AM 59.4°F15.2°C 56.7°F13.7°C 91% Calm Calm 3.5 mph5.6 kmh 29.82 in1009.8 mb - 0.00 in0.0 mm 0.00 in0.0 mm
04:50 AM 59.4°F15.2°C 56.7°F13.7°C 91% 2.3 mph ENE3.7 kmh ENE 3.5 mph5.6 kmh 29.82 in1009.8 mb - 0.00 in0.0 mm 0.00 in0.0 mm
04:55 AM 59.4°F15.2°C 56.7°F13.7°C 91% 2.3 mph NNE3.7 kmh NNE 2.3 mph3.7 kmh 29.82 in1009.8 mb - 0.00 in0.0 mm 0.00 in0.0 mm
05:00 AM 59.4°F15.2°C 56.7°F13.7°C 91% 2.3 mph NNE3.7 kmh NNE 3.5 mph5.6 kmh 29.82 in1009.8 mb - 0.00 in0.0 mm 0.00 in0.0 mm
05:10 AM 59.4°F15.2°C 56.7°F13.7°C 91% 2.3 mph N3.7 kmh N 2.3 mph3.7 kmh 29.83 in1010.2 mb - 0.00 in0.0 mm 0.00 in0.0 mm
05:15 AM 59.4°F15.2°C 56.7°F13.7°C 91% 1.2 mph NE1.9 kmh NE 2.3 mph3.7 kmh 29.83 in1010.2 mb - 0.00 in0.0 mm 0.00 in0.0 mm
05:20 AM 59.4°F15.2°C 56.7°F13.7°C 91% 2.3 mph NE3.7 kmh NE 5.8 mph9.3 kmh 29.84 in1010.5 mb - 0.00 in0.0 mm 0.00 in0.0 mm
05:25 AM 59.2°F15.1°C 56.2°F13.4°C 90% 2.3 mph NE3.7 kmh NE 2.3 mph3.7 kmh 29.85 in1010.8 mb - 0.00 in0.0 mm 0.00 in0.0 mm
05:30 AM 59.0°F15.0°C 56.1°F13.4°C 90% 2.3 mph N3.7 kmh N 3.5 mph5.6 kmh 29.85 in1010.8 mb - 0.00 in0.0 mm 0.00 in0.0 mm
05:35 AM 59.0°F15.0°C 56.1°F13.4°C 90% 3.5 mph NE5.6 kmh NE 3.5 mph5.6 kmh 29.85 in1010.8 mb - 0.00 in0.0 mm 0.00 in0.0 mm
05:40 AM 59.0°F15.0°C 56.1°F13.4°C 90% 1.2 mph NE1.9 kmh NE 3.5 mph5.6 kmh 29.86 in1011.2 mb - 0.00 in0.0 mm 0.00 in0.0 mm
05:45 AM 58.9°F14.9°C 56.0°F13.3°C 90% 2.3 mph NE3.7 kmh NE 5.8 mph9.3 kmh 29.85 in1010.8 mb - 0.00 in0.0 mm 0.00 in0.0 mm
05:50 AM 58.5°F14.7°C 55.5°F13.1°C 90% 4.6 mph NNW7.4 kmh NNW 5.8 mph9.3 kmh 29.86 in1011.2 mb - 0.00 in0.0 mm 0.00 in0.0 mm
05:55 AM 58.5°F14.7°C 55.5°F13.1°C 90% 3.5 mph ENE5.6 kmh ENE 4.6 mph7.4 kmh 29.86 in1011.2 mb - 0.00 in0.0 mm 0.00 in0.0 mm
06:00 AM 58.5°F14.7°C 54.9°F12.7°C 88% 3.5 mph ENE5.6 kmh ENE 4.6 mph7.4 kmh 29.86 in1011.2 mb - 0.00 in0.0 mm 0.00 in0.0 mm
06:10 AM 57.7°F14.3°C 54.2°F12.3°C 88% 3.5 mph NNE5.6 kmh NNE 4.6 mph7.4 kmh 29.87 in1011.5 mb - 0.00 in0.0 mm 0.00 in0.0 mm
06:15 AM 57.6°F14.2°C 53.4°F11.9°C 86% 3.5 mph NE5.6 kmh NE 3.5 mph5.6 kmh 29.88 in1011.9 mb - 0.00 in0.0 mm 0.00 in0.0 mm
06:20 AM 57.6°F14.2°C 53.4°F11.9°C 86% 3.5 mph ENE5.6 kmh ENE 3.5 mph5.6 kmh 29.89 in1012.2 mb - 0.00 in0.0 mm 0.00 in0.0 mm
06:25 AM 57.6°F14.2°C 53.4°F11.9°C 86% 3.5 mph NE5.6 kmh NE 3.5 mph5.6 kmh 29.89 in1012.2 mb - 0.00 in0.0 mm 0.00 in0.0 mm
06:30 AM 57.4°F14.1°C 53.2°F11.8°C 86% 2.3 mph NE3.7 kmh NE 3.5 mph5.6 kmh 29.89 in1012.2 mb - 0.00 in0.0 mm 0.00 in0.0 mm
06:35 AM 57.0°F13.9°C 52.8°F11.6°C 86% 3.5 mph NNE5.6 kmh NNE 6.9 mph11.1 kmh 29.89 in1012.2 mb - 0.00 in0.0 mm 0.00 in0.0 mm
06:40 AM 56.7°F13.7°C 52.5°F11.4°C 86% 3.5 mph NNE5.6 kmh NNE 4.6 mph7.4 kmh 29.89 in1012.2 mb - 0.00 in0.0 mm 0.00 in0.0 mm
06:45 AM 56.6°F13.7°C 52.5°F11.4°C 86% 3.5 mph NE5.6 kmh NE 5.8 mph9.3 kmh 29.90 in1012.5 mb - 0.00 in0.0 mm 0.00 in0.0 mm
06:50 AM 56.5°F13.6°C 52.3°F11.3°C 86% 3.5 mph SE5.6 kmh SE 3.5 mph5.6 kmh 29.90 in1012.5 mb - 0.00 in0.0 mm 0.00 in0.0 mm
06:55 AM 56.5°F13.6°C 52.3°F11.3°C 86% 2.3 mph WNW3.7 kmh WNW 3.5 mph5.6 kmh 29.90 in1012.5 mb - 0.00 in0.0 mm 0.00 in0.0 mm
07:00 AM 56.3°F13.5°C 52.2°F11.2°C 86% 3.5 mph NNE5.6 kmh NNE 8.1 mph13.0 kmh 29.91 in1012.9 mb - 0.00 in0.0 mm 0.00 in0.0 mm
07:10 AM 55.9°F13.3°C 51.8°F11.0°C 86% 3.5 mph NE5.6 kmh NE 3.5 mph5.6 kmh 29.92 in1013.2 mb - 0.00 in0.0 mm 0.00 in0.0 mm
07:15 AM 56.3°F13.5°C 52.2°F11.2°C 86% 3.5 mph ENE5.6 kmh ENE 3.5 mph5.6 kmh 29.91 in1012.9 mb - 0.00 in0.0 mm 0.00 in0.0 mm
07:20 AM 56.3°F13.5°C 52.2°F11.2°C 86% 3.5 mph ENE5.6 kmh ENE 4.6 mph7.4 kmh 29.93 in1013.5 mb - 0.00 in0.0 mm 0.00 in0.0 mm
07:25 AM 56.3°F13.5°C 52.2°F11.2°C 86% 4.6 mph NE7.4 kmh NE 3.5 mph5.6 kmh 29.93 in1013.5 mb - 0.00 in0.0 mm 0.00 in0.0 mm
07:30 AM 56.4°F13.6°C 52.2°F11.2°C 86% 2.3 mph NNE3.7 kmh NNE 3.5 mph5.6 kmh 29.93 in1013.5 mb - 0.00 in0.0 mm 0.00 in0.0 mm
07:35 AM 55.9°F13.3°C 51.8°F11.0°C 86% 3.5 mph NNE5.6 kmh NNE 8.1 mph13.0 kmh 29.93 in1013.5 mb - 0.00 in0.0 mm 0.00 in0.0 mm
07:40 AM 56.5°F13.6°C 52.3°F11.3°C 86% 1.2 mph ENE1.9 kmh ENE 1.2 mph1.9 kmh 29.93 in1013.5 mb - 0.00 in0.0 mm 0.00 in0.0 mm
07:45 AM 56.5°F13.6°C 52.3°F11.3°C 86% 3.5 mph N5.6 kmh N 5.8 mph9.3 kmh 29.93 in1013.5 mb - 0.00 in0.0 mm 0.00 in0.0 mm
07:50 AM 55.9°F13.3°C 51.8°F11.0°C 86% 4.6 mph ENE7.4 kmh ENE 4.6 mph7.4 kmh 29.94 in1013.9 mb - 0.00 in0.0 mm 0.00 in0.0 mm
07:55 AM 55.9°F13.3°C 51.8°F11.0°C 86% 4.6 mph ESE7.4 kmh ESE 3.5 mph5.6 kmh 29.94 in1013.9 mb - 0.00 in0.0 mm 0.00 in0.0 mm
08:00 AM 55.9°F13.3°C 51.8°F11.0°C 86% 3.5 mph E5.6 kmh E 3.5 mph5.6 kmh 29.95 in1014.2 mb - 0.00 in0.0 mm 0.00 in0.0 mm
08:10 AM 56.5°F13.6°C 52.3°F11.3°C 86% 3.5 mph S5.6 kmh S 3.5 mph5.6 kmh 29.95 in1014.2 mb - 0.00 in0.0 mm 0.00 in0.0 mm
08:15 AM 56.6°F13.7°C 52.2°F11.2°C 85% 3.5 mph NE5.6 kmh NE 10.4 mph16.7 kmh 29.95 in1014.2 mb - 0.00 in0.0 mm 0.00 in0.0 mm
08:20 AM 55.8°F13.2°C 51.3°F10.7°C 85% 5.8 mph NNW9.3 kmh NNW 5.8 mph9.3 kmh 29.95 in1014.2 mb - 0.00 in0.0 mm 0.00 in0.0 mm
08:25 AM 55.9°F13.3°C 51.8°F11.0°C 86% 3.5 mph E5.6 kmh E 6.9 mph11.1 kmh 29.95 in1014.2 mb - 0.00 in0.0 mm 0.00 in0.0 mm
08:30 AM 55.9°F13.3°C 51.5°F10.8°C 85% 3.5 mph SE5.6 kmh SE 8.1 mph13.0 kmh 29.96 in1014.6 mb - 0.00 in0.0 mm 0.00 in0.0 mm
08:35 AM 56.3°F13.5°C 51.8°F11.0°C 85% 3.5 mph NE5.6 kmh NE 6.9 mph11.1 kmh 29.96 in1014.6 mb - 0.00 in0.0 mm 0.00 in0.0 mm
08:40 AM 55.8°F13.2°C 51.3°F10.7°C 85% 4.6 mph NE7.4 kmh NE 3.5 mph5.6 kmh 29.96 in1014.6 mb - 0.00 in0.0 mm 0.00 in0.0 mm
08:45 AM 56.7°F13.7°C 52.3°F11.3°C 85% 3.5 mph NNE5.6 kmh NNE 3.5 mph5.6 kmh 29.96 in1014.6 mb - 0.00 in0.0 mm 0.00 in0.0 mm
08:50 AM 56.7°F13.7°C 51.6°F10.9°C 83% 3.5 mph N5.6 kmh N 3.5 mph5.6 kmh 29.96 in1014.6 mb - 0.00 in0.0 mm 0.00 in0.0 mm
08:55 AM 56.3°F13.5°C 51.5°F10.8°C 84% 3.5 mph W5.6 kmh W 4.6 mph7.4 kmh 29.97 in1014.9 mb - 0.00 in0.0 mm 0.00 in0.0 mm
09:00 AM 55.9°F13.3°C 51.5°F10.8°C 85% 4.6 mph NNE7.4 kmh NNE 3.5 mph5.6 kmh 29.97 in1014.9 mb - 0.00 in0.0 mm 0.00 in0.0 mm
09:10 AM 55.9°F13.3°C 51.5°F10.8°C 85% 2.3 mph NNW3.7 kmh NNW 3.5 mph5.6 kmh 29.97 in1014.9 mb - 0.00 in0.0 mm 0.00 in0.0 mm
09:15 AM 55.9°F13.3°C 51.4°F10.8°C 85% 3.5 mph NNE5.6 kmh NNE 4.6 mph7.4 kmh 29.97 in1014.9 mb - 0.00 in0.0 mm 0.00 in0.0 mm
09:20 AM 55.6°F13.1°C 51.1°F10.6°C 85% 3.5 mph SE5.6 kmh SE 3.5 mph5.6 kmh 29.97 in1014.9 mb - 0.00 in0.0 mm 0.00 in0.0 mm
09:25 AM 55.7°F13.2°C 51.2°F10.7°C 85% 2.3 mph SW3.7 kmh SW 3.5 mph5.6 kmh 29.98 in1015.2 mb - 0.00 in0.0 mm 0.00 in0.0 mm
09:30 AM 55.9°F13.3°C 51.5°F10.8°C 85% 2.3 mph NNE3.7 kmh NNE 4.6 mph7.4 kmh 29.98 in1015.2 mb - 0.00 in0.0 mm 0.00 in0.0 mm
09:35 AM 56.3°F13.5°C 51.8°F11.0°C 85% 3.5 mph ENE5.6 kmh ENE 3.5 mph5.6 kmh 29.97 in1014.9 mb - 0.00 in0.0 mm 0.00 in0.0 mm
09:40 AM 56.3°F13.5°C 51.8°F11.0°C 85% 3.5 mph ENE5.6 kmh ENE 3.5 mph5.6 kmh 29.98 in1015.2 mb - 0.00 in0.0 mm 0.00 in0.0 mm
09:45 AM 56.5°F13.6°C 52.0°F11.1°C 85% 2.3 mph NNE3.7 kmh NNE 2.3 mph3.7 kmh 29.98 in1015.2 mb - 0.00 in0.0 mm 0.00 in0.0 mm
09:50 AM 56.5°F13.6°C 52.0°F11.1°C 85% 2.3 mph NNE3.7 kmh NNE 3.5 mph5.6 kmh 29.97 in1014.9 mb - 0.00 in0.0 mm 0.00 in0.0 mm
09:55 AM 56.6°F13.7°C 52.2°F11.2°C 85% 2.3 mph NNE3.7 kmh NNE 3.5 mph5.6 kmh 29.98 in1015.2 mb - 0.00 in0.0 mm 0.00 in0.0 mm
10:00 AM 56.9°F13.8°C 51.8°F11.0°C 83% 2.3 mph NNW3.7 kmh NNW 3.5 mph5.6 kmh 29.98 in1015.2 mb - 0.00 in0.0 mm 0.00 in0.0 mm
10:10 AM 56.7°F13.7°C 51.6°F10.9°C 83% 4.6 mph NNW7.4 kmh NNW 4.6 mph7.4 kmh 29.98 in1015.2 mb - 0.00 in0.0 mm 0.00 in0.0 mm
10:15 AM 57.4°F14.1°C 52.3°F11.3°C 83% 3.5 mph NNW5.6 kmh NNW 3.5 mph5.6 kmh 29.98 in1015.2 mb - 0.00 in0.0 mm 0.00 in0.0 mm
10:20 AM 57.7°F14.3°C 52.6°F11.4°C 83% 3.5 mph NNE5.6 kmh NNE 3.5 mph5.6 kmh 29.98 in1015.2 mb - 0.00 in0.0 mm 0.00 in0.0 mm
10:25 AM 57.9°F14.4°C 52.8°F11.6°C 83% 2.3 mph NNE3.7 kmh NNE 3.5 mph5.6 kmh 29.98 in1015.2 mb - 0.00 in0.0 mm 0.00 in0.0 mm
10:30 AM 58.3°F14.6°C 53.2°F11.8°C 83% 3.5 mph N5.6 kmh N 3.5 mph5.6 kmh 29.98 in1015.2 mb - 0.00 in0.0 mm 0.00 in0.0 mm
10:35 AM 59.4°F15.2°C 53.5°F11.9°C 81% 3.5 mph NNE5.6 kmh NNE 8.1 mph13.0 kmh 29.98 in1015.2 mb - 0.00 in0.0 mm 0.00 in0.0 mm
10:40 AM 59.4°F15.2°C 53.5°F11.9°C 81% 4.6 mph NNE7.4 kmh NNE 5.8 mph9.3 kmh 29.98 in1015.2 mb - 0.00 in0.0 mm 0.00 in0.0 mm
10:45 AM 60.0°F15.6°C 53.8°F12.1°C 80% 3.5 mph NE5.6 kmh NE 5.8 mph9.3 kmh 29.98 in1015.2 mb - 0.00 in0.0 mm 0.00 in0.0 mm
10:50 AM 60.9°F16.1°C 55.0°F12.8°C 81% 2.3 mph NNE3.7 kmh NNE 3.5 mph5.6 kmh 29.98 in1015.2 mb - 0.00 in0.0 mm 0.00 in0.0 mm
10:55 AM 61.6°F16.4°C 55.0°F12.8°C 79% 3.5 mph NW5.6 kmh NW 5.8 mph9.3 kmh 29.98 in1015.2 mb - 0.00 in0.0 mm 0.00 in0.0 mm
11:00 AM 61.5°F16.4°C 54.9°F12.7°C 79% 3.5 mph WNW5.6 kmh WNW 3.5 mph5.6 kmh 29.98 in1015.2 mb - 0.00 in0.0 mm 0.00 in0.0 mm
11:10 AM 61.6°F16.4°C 54.6°F12.6°C 78% 5.8 mph W9.3 kmh W 5.8 mph9.3 kmh 29.99 in1015.6 mb - 0.00 in0.0 mm 0.00 in0.0 mm
11:15 AM 61.6°F16.4°C 54.7°F12.6°C 78% 4.6 mph NW7.4 kmh NW 5.8 mph9.3 kmh 29.99 in1015.6 mb - 0.00 in0.0 mm 0.00 in0.0 mm
11:20 AM 62.1°F16.7°C 55.2°F12.9°C 78% 3.5 mph NNE5.6 kmh NNE 3.5 mph5.6 kmh 29.99 in1015.6 mb - 0.00 in0.0 mm 0.00 in0.0 mm
11:25 AM 63.0°F17.2°C 54.9°F12.7°C 75% 4.6 mph NW7.4 kmh NW 6.9 mph11.1 kmh 29.99 in1015.6 mb - 0.00 in0.0 mm 0.00 in0.0 mm
11:30 AM 62.5°F16.9°C 55.5°F13.1°C 78% 4.6 mph NNE7.4 kmh NNE 5.8 mph9.3 kmh 29.99 in1015.6 mb - 0.00 in0.0 mm 0.00 in0.0 mm
11:35 AM 62.1°F16.7°C 55.5°F13.1°C 79% 3.5 mph SSW5.6 kmh SSW 2.3 mph3.7 kmh 29.99 in1015.6 mb - 0.00 in0.0 mm 0.00 in0.0 mm
11:40 AM 62.1°F16.7°C 55.5°F13.1°C 79% 3.5 mph SSW5.6 kmh SSW 2.3 mph3.7 kmh 29.99 in1015.6 mb - 0.00 in0.0 mm 0.00 in0.0 mm
11:45 AM 63.5°F17.5°C 56.1°F13.4°C 77% 5.8 mph WSW9.3 kmh WSW 8.1 mph13.0 kmh 29.99 in1015.6 mb - 0.00 in0.0 mm 0.00 in0.0 mm
11:50 AM 63.9°F17.7°C 55.8°F13.2°C 75% 5.8 mph NNW9.3 kmh NNW 4.6 mph7.4 kmh 29.99 in1015.6 mb - 0.00 in0.0 mm 0.00 in0.0 mm
11:55 AM 64.8°F18.2°C 56.6°F13.7°C 75% 4.6 mph NNW7.4 kmh NNW 6.9 mph11.1 kmh 29.99 in1015.6 mb - 0.00 in0.0 mm 0.00 in0.0 mm
12:00 PM 64.8°F18.2°C 56.6°F13.7°C 75% 3.5 mph WSW5.6 kmh WSW 3.5 mph5.6 kmh 29.99 in1015.6 mb - 0.00 in0.0 mm 0.00 in0.0 mm
12:10 PM 64.9°F18.3°C 56.5°F13.6°C 74% 3.5 mph NE5.6 kmh NE 3.5 mph5.6 kmh 29.98 in1015.2 mb - 0.00 in0.0 mm 0.00 in0.0 mm
12:15 PM 65.7°F18.7°C 57.5°F14.2°C 75% 3.5 mph ESE5.6 kmh ESE 3.5 mph5.6 kmh 29.98 in1015.2 mb - 0.00 in0.0 mm 0.00 in0.0 mm
12:20 PM 65.7°F18.7°C 57.1°F13.9°C 74% 3.5 mph WNW5.6 kmh WNW 3.5 mph5.6 kmh 29.99 in1015.6 mb - 0.00 in0.0 mm 0.00 in0.0 mm
12:25 PM 65.8°F18.8°C 57.7°F14.3°C 75% 4.6 mph WNW7.4 kmh WNW 3.5 mph5.6 kmh 29.99 in1015.6 mb - 0.00 in0.0 mm 0.00 in0.0 mm
12:30 PM 65.8°F18.8°C 57.7°F14.3°C 75% 2.3 mph ESE3.7 kmh ESE 2.3 mph3.7 kmh 29.98 in1015.2 mb - 0.00 in0.0 mm 0.00 in0.0 mm
12:35 PM 67.4°F19.7°C 58.5°F14.7°C 73% 3.5 mph NE5.6 kmh NE 3.5 mph5.6 kmh 29.98 in1015.2 mb - 0.00 in0.0 mm 0.00 in0.0 mm
12:40 PM 67.9°F19.9°C 58.1°F14.5°C 71% 2.3 mph NE3.7 kmh NE 5.8 mph9.3 kmh 29.98 in1015.2 mb - 0.00 in0.0 mm 0.00 in0.0 mm
12:45 PM 67.3°F19.6°C 57.6°F14.2°C 71% 4.6 mph NNW7.4 kmh NNW 3.5 mph5.6 kmh 29.98 in1015.2 mb - 0.00 in0.0 mm 0.00 in0.0 mm
12:50 PM 68.4°F20.2°C 58.6°F14.8°C 71% 3.5 mph N5.6 kmh N 3.5 mph5.6 kmh 29.98 in1015.2 mb - 0.00 in0.0 mm 0.00 in0.0 mm
12:55 PM 67.4°F19.7°C 57.7°F14.3°C 71% 4.6 mph SSW7.4 kmh SSW 3.5 mph5.6 kmh 29.98 in1015.2 mb - 0.00 in0.0 mm 0.00 in0.0 mm
01:00 PM 69.2°F20.7°C 59.0°F15.0°C 70% 2.3 mph ENE3.7 kmh ENE 3.5 mph5.6 kmh 29.98 in1015.2 mb - 0.00 in0.0 mm 0.00 in0.0 mm
01:10 PM 69.0°F20.6°C 58.8°F14.9°C 70% 3.5 mph WSW5.6 kmh WSW 3.5 mph5.6 kmh 29.97 in1014.9 mb - 0.00 in0.0 mm 0.00 in0.0 mm
01:15 PM 69.3°F20.7°C 59.1°F15.1°C 70% 3.5 mph NE5.6 kmh NE 4.6 mph7.4 kmh 29.97 in1014.9 mb - 0.00 in0.0 mm 0.00 in0.0 mm
01:20 PM 69.5°F20.8°C 58.9°F14.9°C 69% 3.5 mph NNE5.6 kmh NNE 3.5 mph5.6 kmh 29.96 in1014.6 mb - 0.00 in0.0 mm 0.00 in0.0 mm
01:25 PM 69.4°F20.8°C 59.2°F15.1°C 70% 2.3 mph NNW3.7 kmh NNW 3.5 mph5.6 kmh 29.96 in1014.6 mb - 0.00 in0.0 mm 0.00 in0.0 mm
01:30 PM 69.2°F20.7°C 59.0°F15.0°C 70% 2.3 mph N3.7 kmh N 2.3 mph3.7 kmh 29.96 in1014.6 mb - 0.00 in0.0 mm 0.00 in0.0 mm
01:35 PM 70.0°F21.1°C 59.3°F15.2°C 69% 2.3 mph ESE3.7 kmh ESE 4.6 mph7.4 kmh 29.96 in1014.6 mb - 0.00 in0.0 mm 0.00 in0.0 mm
01:40 PM 70.1°F21.2°C 59.1°F15.1°C 68% 3.5 mph N5.6 kmh N 6.9 mph11.1 kmh 29.96 in1014.6 mb - 0.00 in0.0 mm 0.00 in0.0 mm
01:45 PM 70.0°F21.1°C 59.3°F15.2°C 69% 3.5 mph NNE5.6 kmh NNE 3.5 mph5.6 kmh 29.96 in1014.6 mb - 0.00 in0.0 mm 0.00 in0.0 mm
01:50 PM 70.1°F21.2°C 59.9°F15.5°C 70% 4.6 mph N7.4 kmh N 4.6 mph7.4 kmh 29.96 in1014.6 mb - 0.00 in0.0 mm 0.00 in0.0 mm
01:55 PM 70.4°F21.3°C 59.3°F15.2°C 68% 3.5 mph WNW5.6 kmh WNW 5.8 mph9.3 kmh 29.96 in1014.6 mb - 0.00 in0.0 mm 0.00 in0.0 mm
02:00 PM 70.2°F21.2°C 59.1°F15.1°C 68% 3.5 mph WSW5.6 kmh WSW 2.3 mph3.7 kmh 29.96 in1014.6 mb - 0.00 in0.0 mm 0.00 in0.0 mm
02:10 PM 70.2°F21.2°C 59.2°F15.1°C 68% 3.5 mph WSW5.6 kmh WSW 4.6 mph7.4 kmh 29.97 in1014.9 mb - 0.00 in0.0 mm 0.00 in0.0 mm
02:15 PM 70.6°F21.4°C 59.6°F15.3°C 68% 3.5 mph N5.6 kmh N 3.5 mph5.6 kmh 29.97 in1014.9 mb - 0.00 in0.0 mm 0.00 in0.0 mm
02:20 PM 70.8°F21.6°C 59.3°F15.2°C 67% 3.5 mph NNE5.6 kmh NNE 4.6 mph7.4 kmh 29.97 in1014.9 mb - 0.00 in0.0 mm 0.00 in0.0 mm
02:25 PM 70.2°F21.2°C 59.1°F15.1°C 68% 4.6 mph NW7.4 kmh NW 3.5 mph5.6 kmh 29.98 in1015.2 mb - 0.00 in0.0 mm 0.00 in0.0 mm
02:30 PM 70.7°F21.5°C 58.8°F14.9°C 66% 4.6 mph NE7.4 kmh NE 4.6 mph7.4 kmh 29.97 in1014.9 mb - 0.00 in0.0 mm 0.00 in0.0 mm
02:35 PM 70.0°F21.1°C 58.9°F14.9°C 68% 3.5 mph NE5.6 kmh NE 3.5 mph5.6 kmh 29.98 in1015.2 mb - 0.00 in0.0 mm 0.00 in0.0 mm
02:40 PM 70.5°F21.4°C 58.6°F14.8°C 66% 4.6 mph NE7.4 kmh NE 8.1 mph13.0 kmh 29.97 in1014.9 mb - 0.00 in0.0 mm 0.00 in0.0 mm
02:45 PM 71.1°F21.7°C 59.1°F15.1°C 66% 3.5 mph NE5.6 kmh NE 3.5 mph5.6 kmh 29.98 in1015.2 mb - 0.00 in0.0 mm 0.00 in0.0 mm
02:50 PM 70.9°F21.6°C 59.8°F15.4°C 68% 3.5 mph NW5.6 kmh NW 3.5 mph5.6 kmh 29.98 in1015.2 mb - 0.00 in0.0 mm 0.00 in0.0 mm
02:55 PM 70.8°F21.6°C 58.9°F14.9°C 66% 4.6 mph N7.4 kmh N 4.6 mph7.4 kmh 29.98 in1015.2 mb - 0.00 in0.0 mm 0.00 in0.0 mm
03:00 PM 70.2°F21.2°C 59.1°F15.1°C 68% 4.6 mph SE7.4 kmh SE 6.9 mph11.1 kmh 29.99 in1015.6 mb - 0.00 in0.0 mm 0.00 in0.0 mm
03:10 PM 70.5°F21.4°C 59.4°F15.2°C 68% 2.3 mph NNE3.7 kmh NNE 2.3 mph3.7 kmh 29.98 in1015.2 mb - 0.00 in0.0 mm 0.00 in0.0 mm
03:15 PM 70.1°F21.2°C 59.1°F15.1°C 68% 3.5 mph NNE5.6 kmh NNE 4.6 mph7.4 kmh 29.98 in1015.2 mb - 0.00 in0.0 mm 0.00 in0.0 mm
03:20 PM 70.2°F21.2°C 59.2°F15.1°C 68% 4.6 mph NE7.4 kmh NE 4.6 mph7.4 kmh 29.98 in1015.2 mb - 0.00 in0.0 mm 0.00 in0.0 mm
03:25 PM 70.5°F21.4°C 59.9°F15.5°C 69% 3.5 mph NNW5.6 kmh NNW 5.8 mph9.3 kmh 29.98 in1015.2 mb - 0.00 in0.0 mm 0.00 in0.0 mm
03:30 PM 70.0°F21.1°C 59.3°F15.2°C 69% 4.6 mph NNW7.4 kmh NNW 2.3 mph3.7 kmh 29.99 in1015.6 mb - 0.00 in0.0 mm 0.00 in0.0 mm
03:35 PM 71.1°F21.7°C 60.0°F15.6°C 68% 2.3 mph NNW3.7 kmh NNW 2.3 mph3.7 kmh 29.99 in1015.6 mb - 0.00 in0.0 mm 0.00 in0.0 mm
03:40 PM 70.4°F21.3°C 59.3°F15.2°C 68% 2.3 mph E3.7 kmh E 3.5 mph5.6 kmh 29.98 in1015.2 mb - 0.00 in0.0 mm 0.00 in0.0 mm
03:45 PM 71.0°F21.7°C 59.1°F15.1°C 66% 2.3 mph NE3.7 kmh NE 3.5 mph5.6 kmh 29.98 in1015.2 mb - 0.00 in0.0 mm 0.00 in0.0 mm
03:50 PM 71.1°F21.7°C 58.7°F14.8°C 65% 2.3 mph NNE3.7 kmh NNE 2.3 mph3.7 kmh 29.97 in1014.9 mb - 0.00 in0.0 mm 0.00 in0.0 mm
03:55 PM 71.1°F21.7°C 58.7°F14.8°C 65% 2.3 mph NNE3.7 kmh NNE 2.3 mph3.7 kmh 29.98 in1015.2 mb - 0.00 in0.0 mm 0.00 in0.0 mm
04:00 PM 70.7°F21.5°C 58.8°F14.9°C 66% 2.3 mph N3.7 kmh N 5.8 mph9.3 kmh 29.97 in1014.9 mb - 0.00 in0.0 mm 0.00 in0.0 mm
04:10 PM 71.8°F22.1°C 59.4°F15.2°C 65% 3.5 mph NNW5.6 kmh NNW 6.9 mph11.1 kmh 29.97 in1014.9 mb - 0.00 in0.0 mm 0.00 in0.0 mm
04:15 PM 71.1°F21.7°C 58.7°F14.8°C 65% 4.6 mph NE7.4 kmh NE 10.4 mph16.7 kmh 29.97 in1014.9 mb - 0.00 in0.0 mm 0.00 in0.0 mm
04:20 PM 70.6°F21.4°C 58.2°F14.6°C 65% 5.8 mph NNE9.3 kmh NNE 5.8 mph9.3 kmh 29.97 in1014.9 mb - 0.00 in0.0 mm 0.00 in0.0 mm
04:25 PM 70.5°F21.4°C 58.6°F14.8°C 66% 4.6 mph NW7.4 kmh NW 5.8 mph9.3 kmh 29.97 in1014.9 mb - 0.00 in0.0 mm 0.00 in0.0 mm
04:30 PM 71.3°F21.8°C 58.9°F14.9°C 65% 3.5 mph NNE5.6 kmh NNE 3.5 mph5.6 kmh 29.97 in1014.9 mb - 0.00 in0.0 mm 0.00 in0.0 mm
04:35 PM 70.5°F21.4°C 58.6°F14.8°C 66% 3.5 mph ENE5.6 kmh ENE 4.6 mph7.4 kmh 29.97 in1014.9 mb - 0.00 in0.0 mm 0.00 in0.0 mm
04:40 PM 70.3°F21.3°C 59.2°F15.1°C 68% 3.5 mph SE5.6 kmh SE 2.3 mph3.7 kmh 29.97 in1014.9 mb - 0.00 in0.0 mm 0.00 in0.0 mm
04:45 PM 70.0°F21.1°C 58.2°F14.6°C 66% 3.5 mph NW5.6 kmh NW 6.9 mph11.1 kmh 29.97 in1014.9 mb - 0.00 in0.0 mm 0.00 in0.0 mm
04:50 PM 70.1°F21.2°C 59.0°F15.0°C 68% 3.5 mph S5.6 kmh S 3.5 mph5.6 kmh 29.97 in1014.9 mb - 0.00 in0.0 mm 0.00 in0.0 mm
04:55 PM 70.2°F21.2°C 59.1°F15.1°C 68% 4.6 mph NE7.4 kmh NE 3.5 mph5.6 kmh 29.97 in1014.9 mb - 0.00 in0.0 mm 0.00 in0.0 mm
05:00 PM 69.4°F20.8°C 58.8°F14.9°C 69% 5.8 mph NE9.3 kmh NE 8.1 mph13.0 kmh 29.97 in1014.9 mb - 0.00 in0.0 mm 0.00 in0.0 mm
05:10 PM 69.6°F20.9°C 59.0°F15.0°C 69% 4.6 mph E7.4 kmh E 6.9 mph11.1 kmh 29.98 in1015.2 mb - 0.00 in0.0 mm 0.00 in0.0 mm
05:15 PM 69.4°F20.8°C 58.4°F14.7°C 68% 4.6 mph NNW7.4 kmh NNW 3.5 mph5.6 kmh 29.98 in1015.2 mb - 0.00 in0.0 mm 0.00 in0.0 mm
05:20 PM 70.0°F21.1°C 58.9°F14.9°C 68% 3.5 mph WNW5.6 kmh WNW 3.5 mph5.6 kmh 29.98 in1015.2 mb - 0.00 in0.0 mm 0.00 in0.0 mm
05:25 PM 69.2°F20.7°C 58.2°F14.6°C 68% 4.6 mph N7.4 kmh N 3.5 mph5.6 kmh 29.98 in1015.2 mb - 0.00 in0.0 mm 0.00 in0.0 mm
05:30 PM 68.9°F20.5°C 58.3°F14.6°C 69% 3.5 mph NNE5.6 kmh NNE 4.6 mph7.4 kmh 29.98 in1015.2 mb - 0.00 in0.0 mm 0.00 in0.0 mm
05:35 PM 68.5°F20.3°C 58.0°F14.4°C 69% 3.5 mph 5.6 kmh 4.6 mph7.4 kmh 29.97 in1014.9 mb - 0.00 in0.0 mm 0.00 in0.0 mm
05:40 PM 69.1°F20.6°C 58.5°F14.7°C 69% 3.5 mph N5.6 kmh N 5.8 mph9.3 kmh 29.98 in1015.2 mb - 0.00 in0.0 mm 0.00 in0.0 mm
05:45 PM 69.1°F20.6°C 58.5°F14.7°C 69% 3.5 mph NNE5.6 kmh NNE 3.5 mph5.6 kmh 29.97 in1014.9 mb - 0.00 in0.0 mm 0.00 in0.0 mm
05:50 PM 68.8°F20.4°C 58.2°F14.6°C 69% 3.5 mph N5.6 kmh N 4.6 mph7.4 kmh 29.98 in1015.2 mb - 0.00 in0.0 mm 0.00 in0.0 mm
05:55 PM 69.2°F20.7°C 58.6°F14.8°C 69% 3.5 mph WNW5.6 kmh WNW 4.6 mph7.4 kmh 29.98 in1015.2 mb - 0.00 in0.0 mm 0.00 in0.0 mm
06:00 PM 68.4°F20.2°C 57.8°F14.3°C 69% 4.6 mph NW7.4 kmh NW 6.9 mph11.1 kmh 29.98 in1015.2 mb - 0.00 in0.0 mm 0.00 in0.0 mm
06:10 PM 68.2°F20.1°C 58.0°F14.4°C 70% 3.5 mph NE5.6 kmh NE 3.5 mph5.6 kmh 29.98 in1015.2 mb - 0.00 in0.0 mm 0.00 in0.0 mm
06:15 PM 68.5°F20.3°C 58.4°F14.7°C 70% 3.5 mph N5.6 kmh N 5.8 mph9.3 kmh 29.98 in1015.2 mb - 0.00 in0.0 mm 0.00 in0.0 mm
06:20 PM 68.4°F20.2°C 57.8°F14.3°C 69% 4.6 mph NNE7.4 kmh NNE 8.1 mph13.0 kmh 29.98 in1015.2 mb - 0.00 in0.0 mm 0.00 in0.0 mm
06:25 PM 68.2°F20.1°C 58.0°F14.4°C 70% 4.6 mph NNE7.4 kmh NNE 5.8 mph9.3 kmh 29.98 in1015.2 mb - 0.00 in0.0 mm 0.00 in0.0 mm
06:30 PM 67.9°F19.9°C 57.4°F14.1°C 69% 4.6 mph NNW7.4 kmh NNW 6.9 mph11.1 kmh 29.98 in1015.2 mb - 0.00 in0.0 mm 0.00 in0.0 mm
06:35 PM 68.2°F20.1°C 57.6°F14.2°C 69% 3.5 mph N5.6 kmh N 3.5 mph5.6 kmh 29.98 in1015.2 mb - 0.00 in0.0 mm 0.00 in0.0 mm
06:40 PM 68.0°F20.0°C 57.8°F14.3°C 70% 3.5 mph NNW5.6 kmh NNW 3.5 mph5.6 kmh 29.98 in1015.2 mb - 0.00 in0.0 mm 0.00 in0.0 mm
06:45 PM 68.0°F20.0°C 57.8°F14.3°C 70% 3.5 mph NE5.6 kmh NE 2.3 mph3.7 kmh 29.99 in1015.6 mb - 0.00 in0.0 mm 0.00 in0.0 mm
06:50 PM 68.0°F20.0°C 57.9°F14.4°C 70% 2.3 mph NE3.7 kmh NE 6.9 mph11.1 kmh 29.98 in1015.2 mb - 0.00 in0.0 mm 0.00 in0.0 mm
06:55 PM 68.0°F20.0°C 57.8°F14.3°C 70% 3.5 mph NE5.6 kmh NE 4.6 mph7.4 kmh 29.98 in1015.2 mb - 0.00 in0.0 mm 0.00 in0.0 mm
07:00 PM 66.6°F19.2°C 56.5°F13.6°C 70% 3.5 mph NNE5.6 kmh NNE 3.5 mph5.6 kmh 29.98 in1015.2 mb - 0.00 in0.0 mm 0.00 in0.0 mm
07:10 PM 65.8°F18.8°C 55.8°F13.2°C 70% 3.5 mph N5.6 kmh N 6.9 mph11.1 kmh 29.99 in1015.6 mb - 0.00 in0.0 mm 0.00 in0.0 mm
07:15 PM 65.8°F18.8°C 55.7°F13.2°C 70% 3.5 mph E5.6 kmh E 3.5 mph5.6 kmh 29.99 in1015.6 mb - 0.00 in0.0 mm 0.00 in0.0 mm
07:20 PM 64.9°F18.3°C 54.9°F12.7°C 70% 2.3 mph NE3.7 kmh NE 2.3 mph3.7 kmh 30.00 in1015.9 mb - 0.00 in0.0 mm 0.00 in0.0 mm
07:25 PM 64.9°F18.3°C 54.9°F12.7°C 70% 1.2 mph N1.9 kmh N 2.3 mph3.7 kmh 30.00 in1015.9 mb - 0.00 in0.0 mm 0.00 in0.0 mm
07:30 PM 64.4°F18.0°C 54.4°F12.4°C 70% 2.3 mph NNE3.7 kmh NNE 3.5 mph5.6 kmh 30.00 in1015.9 mb - 0.00 in0.0 mm 0.00 in0.0 mm
07:35 PM 64.4°F18.0°C 54.4°F12.4°C 70% 2.3 mph NNE3.7 kmh NNE 3.5 mph5.6 kmh 30.00 in1015.9 mb - 0.00 in0.0 mm 0.00 in0.0 mm
07:40 PM 64.4°F18.0°C 54.4°F12.4°C 70% 2.3 mph ENE3.7 kmh ENE 2.3 mph3.7 kmh 30.00 in1015.9 mb - 0.00 in0.0 mm 0.00 in0.0 mm
07:45 PM 62.4°F16.9°C 54.0°F12.2°C 74% 2.3 mph ENE3.7 kmh ENE 2.3 mph3.7 kmh 30.00 in1015.9 mb - 0.00 in0.0 mm 0.00 in0.0 mm
07:50 PM 62.4°F16.9°C 54.0°F12.2°C 74% 2.3 mph ENE3.7 kmh ENE 2.3 mph3.7 kmh 30.00 in1015.9 mb - 0.00 in0.0 mm 0.00 in0.0 mm
07:55 PM 61.3°F16.3°C 53.3°F11.8°C 75% 4.6 mph ENE7.4 kmh ENE 4.6 mph7.4 kmh 30.00 in1015.9 mb - 0.00 in0.0 mm 0.00 in0.0 mm
08:00 PM 61.3°F16.3°C 53.3°F11.8°C 75% 4.6 mph ENE7.4 kmh ENE 4.6 mph7.4 kmh 30.00 in1015.9 mb - 0.00 in0.0 mm 0.00 in0.0 mm
08:10 PM 60.3°F15.7°C 52.3°F11.3°C 75% 1.2 mph NE1.9 kmh NE 2.3 mph3.7 kmh 30.00 in1015.9 mb - 0.00 in0.0 mm 0.00 in0.0 mm
08:15 PM 60.3°F15.7°C 52.3°F11.3°C 75% 2.3 mph WNW3.7 kmh WNW 1.2 mph1.9 kmh 30.00 in1015.9 mb - 0.00 in0.0 mm 0.00 in0.0 mm
08:20 PM 60.1°F15.6°C 52.1°F11.2°C 75% 1.2 mph WNW1.9 kmh WNW 1.2 mph1.9 kmh 30.01 in1016.3 mb - 0.00 in0.0 mm 0.00 in0.0 mm
08:25 PM 59.7°F15.4°C 51.8°F11.0°C 75% Calm Calm 1.2 mph1.9 kmh 30.01 in1016.3 mb - 0.00 in0.0 mm 0.00 in0.0 mm
08:30 PM 58.5°F14.7°C 50.9°F10.5°C 76% 1.2 mph SE1.9 kmh SE -- 30.01 in1016.3 mb - 0.00 in0.0 mm 0.00 in0.0 mm
08:35 PM 57.6°F14.2°C 50.8°F10.4°C 78% 2.3 mph ESE3.7 kmh ESE 3.5 mph5.6 kmh 30.01 in1016.3 mb - 0.00 in0.0 mm 0.00 in0.0 mm
08:40 PM 56.8°F13.8°C 50.1°F10.1°C 78% 2.3 mph ESE3.7 kmh ESE 2.3 mph3.7 kmh 30.01 in1016.3 mb - 0.00 in0.0 mm 0.00 in0.0 mm
08:45 PM 56.7°F13.7°C 50.2°F10.1°C 79% 1.2 mph ENE1.9 kmh ENE 1.2 mph1.9 kmh 30.01 in1016.3 mb - 0.00 in0.0 mm 0.00 in0.0 mm
08:50 PM 56.4°F13.6°C 50.3°F10.2°C 80% 1.2 mph ESE1.9 kmh ESE 3.5 mph5.6 kmh 30.02 in1016.6 mb - 0.00 in0.0 mm 0.00 in0.0 mm
08:55 PM 55.6°F13.1°C 49.5°F9.7°C 80% 2.3 mph S3.7 kmh S 1.2 mph1.9 kmh 30.02 in1016.6 mb - 0.00 in0.0 mm 0.00 in0.0 mm
09:00 PM 55.1°F12.8°C 49.4°F9.7°C 81% 1.2 mph SW1.9 kmh SW 3.5 mph5.6 kmh 30.02 in1016.6 mb - 0.00 in0.0 mm 0.00 in0.0 mm
09:10 PM 54.9°F12.7°C 49.1°F9.5°C 81% 1.2 mph S1.9 kmh S 2.3 mph3.7 kmh 30.02 in1016.6 mb - 0.00 in0.0 mm 0.00 in0.0 mm
09:15 PM 54.9°F12.7°C 49.1°F9.5°C 81% 1.2 mph ESE1.9 kmh ESE 1.2 mph1.9 kmh 30.02 in1016.6 mb - 0.00 in0.0 mm 0.00 in0.0 mm
09:20 PM 54.3°F12.4°C 48.6°F9.2°C 81% 1.2 mph SE1.9 kmh SE 1.2 mph1.9 kmh 30.02 in1016.6 mb - 0.00 in0.0 mm 0.00 in0.0 mm
09:25 PM 54.0°F12.2°C 48.9°F9.4°C 83% 1.2 mph N1.9 kmh N 3.5 mph5.6 kmh 30.03 in1016.9 mb - 0.00 in0.0 mm 0.00 in0.0 mm
09:30 PM 54.0°F12.2°C 48.9°F9.4°C 83% 2.3 mph SE3.7 kmh SE 2.3 mph3.7 kmh 30.03 in1016.9 mb - 0.00 in0.0 mm 0.00 in0.0 mm
09:35 PM 54.0°F12.2°C 48.9°F9.4°C 83% 1.2 mph E1.9 kmh E 1.2 mph1.9 kmh 30.03 in1016.9 mb - 0.00 in0.0 mm 0.00 in0.0 mm
09:40 PM 54.0°F12.2°C 48.9°F9.4°C 83% 2.3 mph ESE3.7 kmh ESE 3.5 mph5.6 kmh 30.03 in1016.9 mb - 0.00 in0.0 mm 0.00 in0.0 mm
09:45 PM 54.0°F12.2°C 48.9°F9.4°C 83% 2.3 mph NNE3.7 kmh NNE 3.5 mph5.6 kmh 30.04 in1017.3 mb - 0.00 in0.0 mm 0.00 in0.0 mm
09:50 PM 54.0°F12.2°C 48.9°F9.4°C 83% 2.3 mph NW3.7 kmh NW 3.5 mph5.6 kmh 30.03 in1016.9 mb - 0.00 in0.0 mm 0.00 in0.0 mm
09:55 PM 54.0°F12.2°C 48.9°F9.4°C 83% 2.3 mph NE3.7 kmh NE 3.5 mph5.6 kmh 30.03 in1016.9 mb - 0.00 in0.0 mm 0.00 in0.0 mm
10:00 PM 54.1°F12.3°C 49.1°F9.5°C 83% 2.3 mph ESE3.7 kmh ESE 3.5 mph5.6 kmh 30.03 in1016.9 mb - 0.00 in0.0 mm 0.00 in0.0 mm
10:10 PM 54.1°F12.3°C 49.1°F9.5°C 83% 2.3 mph NE3.7 kmh NE 3.5 mph5.6 kmh 30.03 in1016.9 mb - 0.00 in0.0 mm 0.00 in0.0 mm
10:15 PM 54.1°F12.3°C 49.1°F9.5°C 83% 3.5 mph E5.6 kmh E 4.6 mph7.4 kmh 30.04 in1017.3 mb - 0.00 in0.0 mm 0.00 in0.0 mm
10:20 PM 54.0°F12.2°C 48.9°F9.4°C 83% 3.5 mph ENE5.6 kmh ENE 3.5 mph5.6 kmh 30.04 in1017.3 mb - 0.00 in0.0 mm 0.00 in0.0 mm
10:25 PM 54.0°F12.2°C 48.9°F9.4°C 83% 3.5 mph SE5.6 kmh SE 3.5 mph5.6 kmh 30.05 in1017.6 mb - 0.00 in0.0 mm 0.00 in0.0 mm
10:30 PM 54.0°F12.2°C 48.9°F9.4°C 83% 3.5 mph N5.6 kmh N 4.6 mph7.4 kmh 30.05 in1017.6 mb - 0.00 in0.0 mm 0.00 in0.0 mm
10:35 PM 53.8°F12.1°C 48.7°F9.3°C 83% 3.5 mph NE5.6 kmh NE 2.3 mph3.7 kmh 30.04 in1017.3 mb - 0.00 in0.0 mm 0.00 in0.0 mm
10:40 PM 53.8°F12.1°C 48.7°F9.3°C 83% 3.5 mph SW5.6 kmh SW 4.6 mph7.4 kmh 30.04 in1017.3 mb - 0.00 in0.0 mm 0.00 in0.0 mm
10:45 PM 53.8°F12.1°C 48.7°F9.3°C 83% 2.3 mph E3.7 kmh E 3.5 mph5.6 kmh 30.04 in1017.3 mb - 0.00 in0.0 mm 0.00 in0.0 mm
10:50 PM 53.4°F11.9°C 48.4°F9.1°C 83% 3.5 mph E5.6 kmh E 8.1 mph13.0 kmh 30.04 in1017.3 mb - 0.00 in0.0 mm 0.00 in0.0 mm
10:55 PM 53.4°F11.9°C 48.4°F9.1°C 83% 2.3 mph NNE3.7 kmh NNE 3.5 mph5.6 kmh 30.04 in1017.3 mb - 0.00 in0.0 mm 0.00 in0.0 mm
11:00 PM 53.4°F11.9°C 48.4°F9.1°C 83% 3.5 mph ESE5.6 kmh ESE 3.5 mph5.6 kmh 30.04 in1017.3 mb - 0.00 in0.0 mm 0.00 in0.0 mm
11:10 PM 53.4°F11.9°C 48.4°F9.1°C 83% 2.3 mph NE3.7 kmh NE 3.5 mph5.6 kmh 30.03 in1016.9 mb - 0.00 in0.0 mm 0.00 in0.0 mm
11:15 PM 53.4°F11.9°C 48.4°F9.1°C 83% 3.5 mph NE5.6 kmh NE 3.5 mph5.6 kmh 30.03 in1016.9 mb - 0.00 in0.0 mm 0.00 in0.0 mm
11:20 PM 53.4°F11.9°C 48.4°F9.1°C 83% 3.5 mph N5.6 kmh N 3.5 mph5.6 kmh 30.03 in1016.9 mb - 0.00 in0.0 mm 0.00 in0.0 mm
11:25 PM 53.4°F11.9°C 48.4°F9.1°C 83% 2.3 mph NE3.7 kmh NE 3.5 mph5.6 kmh 30.03 in1016.9 mb - 0.00 in0.0 mm 0.00 in0.0 mm
11:30 PM 53.4°F11.9°C 48.4°F9.1°C 83% 2.3 mph NNE3.7 kmh NNE 3.5 mph5.6 kmh 30.03 in1016.9 mb - 0.00 in0.0 mm 0.00 in0.0 mm
11:35 PM 53.4°F11.9°C 48.4°F9.1°C 83% 2.3 mph NE3.7 kmh NE 3.5 mph5.6 kmh 30.03 in1016.9 mb - 0.00 in0.0 mm 0.00 in0.0 mm
11:40 PM 53.4°F11.9°C 48.4°F9.1°C 83% 2.3 mph N3.7 kmh N 4.6 mph7.4 kmh 30.04 in1017.3 mb - 0.00 in0.0 mm 0.00 in0.0 mm
11:45 PM 53.4°F11.9°C 48.4°F9.1°C 83% 3.5 mph NE5.6 kmh NE 3.5 mph5.6 kmh 30.04 in1017.3 mb - 0.00 in0.0 mm 0.00 in0.0 mm
11:50 PM 53.4°F11.9°C 48.4°F9.1°C 83% 2.3 mph NNE3.7 kmh NNE 3.5 mph5.6 kmh 30.04 in1017.3 mb - 0.00 in0.0 mm 0.00 in0.0 mm
11:55 PM 53.4°F11.9°C 48.4°F9.1°C 83% 2.3 mph SE3.7 kmh SE 2.3 mph3.7 kmh 30.04 in1017.3 mb - 0.00 in0.0 mm 0.00 in0.0 mm